sensor_id;sensor_type;location;lat;lon;timestamp;pressure;altitude;pressure_sealevel;temperature;humidity
78409;BME280;67697;50.750;-3.270;2023-07-28T00:01:44;99955.02;;;19.93;59.53
78409;BME280;67697;50.750;-3.270;2023-07-28T00:04:10;99954.89;;;20.54;57.69
78409;BME280;67697;50.750;-3.270;2023-07-28T00:06:40;99958.00;;;20.79;57.89
78409;BME280;67697;50.750;-3.270;2023-07-28T00:09:00;99956.05;;;21.57;55.27
78409;BME280;67697;50.750;-3.270;2023-07-28T00:11:26;99956.35;;;21.62;54.74
78409;BME280;67697;50.750;-3.270;2023-07-28T00:13:51;99956.56;;;20.97;57.03
78409;BME280;67697;50.750;-3.270;2023-07-28T00:16:17;99954.90;;;21.85;54.55
78409;BME280;67697;50.750;-3.270;2023-07-28T00:18:42;99958.97;;;22.27;53.76
78409;BME280;67697;50.750;-3.270;2023-07-28T00:21:08;99953.55;;;21.02;55.47
78409;BME280;67697;50.750;-3.270;2023-07-28T00:23:33;99953.20;;;21.25;55.33
78409;BME280;67697;50.750;-3.270;2023-07-28T00:25:59;99956.53;;;19.34;59.88
78409;BME280;67697;50.750;-3.270;2023-07-28T00:28:25;99950.18;;;21.52;55.22
78409;BME280;67697;50.750;-3.270;2023-07-28T00:30:50;99950.77;;;20.83;55.61
78409;BME280;67697;50.750;-3.270;2023-07-28T00:33:15;99948.88;;;21.89;53.70
78409;BME280;67697;50.750;-3.270;2023-07-28T00:35:41;99946.38;;;20.90;56.62
78409;BME280;67697;50.750;-3.270;2023-07-28T00:38:06;99944.06;;;21.54;54.96
78409;BME280;67697;50.750;-3.270;2023-07-28T00:40:32;99941.34;;;20.91;55.79
78409;BME280;67697;50.750;-3.270;2023-07-28T00:42:58;99943.57;;;22.32;52.68
78409;BME280;67697;50.750;-3.270;2023-07-28T00:45:23;99945.15;;;21.98;53.41
78409;BME280;67697;50.750;-3.270;2023-07-28T00:47:48;99942.59;;;21.94;53.85
78409;BME280;67697;50.750;-3.270;2023-07-28T00:50:14;99941.48;;;22.59;52.01
78409;BME280;67697;50.750;-3.270;2023-07-28T00:52:39;99941.64;;;23.04;50.89
78409;BME280;67697;50.750;-3.270;2023-07-28T00:55:06;99939.35;;;22.21;51.80
78409;BME280;67697;50.750;-3.270;2023-07-28T00:57:32;99937.33;;;22.30;52.34
78409;BME280;67697;50.750;-3.270;2023-07-28T00:59:57;99936.42;;;22.01;53.09
78409;BME280;67697;50.750;-3.270;2023-07-28T01:02:21;99934.35;;;22.79;51.61
78409;BME280;67697;50.750;-3.270;2023-07-28T01:04:48;99935.69;;;21.98;52.92
78409;BME280;67697;50.750;-3.270;2023-07-28T01:07:17;99927.96;;;21.10;54.29
78409;BME280;67697;50.750;-3.270;2023-07-28T01:09:45;99925.48;;;22.16;51.83
78409;BME280;67697;50.750;-3.270;2023-07-28T01:12:07;99923.77;;;22.23;51.53
78409;BME280;67697;50.750;-3.270;2023-07-28T01:14:29;99923.51;;;23.06;50.28
78409;BME280;67697;50.750;-3.270;2023-07-28T01:16:54;99923.07;;;23.21;50.23
78409;BME280;67697;50.750;-3.270;2023-07-28T01:19:21;99930.42;;;22.41;51.50
78409;BME280;67697;50.750;-3.270;2023-07-28T01:21:52;99931.78;;;22.69;50.96
78409;BME280;67697;50.750;-3.270;2023-07-28T01:24:18;99929.96;;;22.80;50.98
78409;BME280;67697;50.750;-3.270;2023-07-28T01:26:37;99924.86;;;23.53;49.25
78409;BME280;67697;50.750;-3.270;2023-07-28T01:29:03;99925.70;;;23.31;49.35
78409;BME280;67697;50.750;-3.270;2023-07-28T01:31:27;99925.90;;;23.15;49.58
78409;BME280;67697;50.750;-3.270;2023-07-28T01:33:53;99929.32;;;22.79;50.83
78409;BME280;67697;50.750;-3.270;2023-07-28T01:36:18;99931.22;;;22.54;51.28
78409;BME280;67697;50.750;-3.270;2023-07-28T01:38:44;99929.43;;;22.96;50.69
78409;BME280;67697;50.750;-3.270;2023-07-28T01:41:09;99931.30;;;22.51;51.48
78409;BME280;67697;50.750;-3.270;2023-07-28T01:43:35;99932.46;;;21.96;52.51
78409;BME280;67697;50.750;-3.270;2023-07-28T01:46:00;99934.67;;;22.41;51.26
78409;BME280;67697;50.750;-3.270;2023-07-28T01:48:26;99934.46;;;22.72;50.96
78409;BME280;67697;50.750;-3.270;2023-07-28T01:50:51;99933.79;;;22.34;52.04
78409;BME280;67697;50.750;-3.270;2023-07-28T01:53:17;99931.43;;;23.27;49.96
78409;BME280;67697;50.750;-3.270;2023-07-28T01:55:42;99929.79;;;23.32;49.50
78409;BME280;67697;50.750;-3.270;2023-07-28T01:58:07;99933.53;;;21.10;52.92
78409;BME280;67697;50.750;-3.270;2023-07-28T02:00:33;99932.71;;;20.68;56.17
78409;BME280;67697;50.750;-3.270;2023-07-28T02:02:59;99936.86;;;21.69;53.89
78409;BME280;67697;50.750;-3.270;2023-07-28T02:05:24;99937.16;;;22.20;52.23
78409;BME280;67697;50.750;-3.270;2023-07-28T02:07:50;99938.22;;;23.00;50.73
78409;BME280;67697;50.750;-3.270;2023-07-28T02:10:15;99942.56;;;23.22;49.51
78409;BME280;67697;50.750;-3.270;2023-07-28T02:12:46;99938.77;;;23.67;48.72
78409;BME280;67697;50.750;-3.270;2023-07-28T02:15:07;99940.83;;;23.61;49.12
78409;BME280;67697;50.750;-3.270;2023-07-28T02:17:32;99941.64;;;23.47;49.72
78409;BME280;67697;50.750;-3.270;2023-07-28T02:19:57;99941.46;;;22.78;51.38
78409;BME280;67697;50.750;-3.270;2023-07-28T02:22:22;99936.39;;;23.51;49.41
78409;BME280;67697;50.750;-3.270;2023-07-28T02:24:48;99938.49;;;22.33;52.19
78409;BME280;67697;50.750;-3.270;2023-07-28T02:27:14;99935.98;;;22.96;52.03
78409;BME280;67697;50.750;-3.270;2023-07-28T02:29:39;99931.53;;;22.03;53.88
78409;BME280;67697;50.750;-3.270;2023-07-28T02:32:10;99929.03;;;22.32;53.20
78409;BME280;67697;50.750;-3.270;2023-07-28T02:34:30;99927.37;;;21.90;54.65
78409;BME280;67697;50.750;-3.270;2023-07-28T02:37:00;99929.47;;;20.31;58.65
78409;BME280;67697;50.750;-3.270;2023-07-28T02:39:21;99923.90;;;21.52;56.04
78409;BME280;67697;50.750;-3.270;2023-07-28T02:41:46;99926.79;;;21.34;55.56
78409;BME280;67697;50.750;-3.270;2023-07-28T02:44:12;99926.34;;;21.99;55.13
78409;BME280;67697;50.750;-3.270;2023-07-28T02:46:37;99929.80;;;21.14;57.48
78409;BME280;67697;50.750;-3.270;2023-07-28T02:49:03;99927.55;;;20.94;57.72
78409;BME280;67697;50.750;-3.270;2023-07-28T02:51:29;99934.81;;;20.66;58.64
78409;BME280;67697;50.750;-3.270;2023-07-28T02:53:54;99935.09;;;21.13;57.71
78409;BME280;67697;50.750;-3.270;2023-07-28T02:56:19;99935.42;;;21.49;56.91
78409;BME280;67697;50.750;-3.270;2023-07-28T02:58:45;99938.26;;;21.73;55.76
78409;BME280;67697;50.750;-3.270;2023-07-28T03:01:10;99937.41;;;21.98;55.49
78409;BME280;67697;50.750;-3.270;2023-07-28T03:03:36;99938.99;;;22.08;55.58
78409;BME280;67697;50.750;-3.270;2023-07-28T03:06:02;99938.77;;;22.12;54.15
78409;BME280;67697;50.750;-3.270;2023-07-28T03:08:27;99934.54;;;22.53;52.99
78409;BME280;67697;50.750;-3.270;2023-07-28T03:10:56;99931.94;;;22.24;53.38
78409;BME280;67697;50.750;-3.270;2023-07-28T03:13:18;99929.40;;;22.42;53.24
78409;BME280;67697;50.750;-3.270;2023-07-28T03:15:43;99929.80;;;20.60;56.43
78409;BME280;67697;50.750;-3.270;2023-07-28T03:18:09;99931.14;;;20.88;55.75
78409;BME280;67697;50.750;-3.270;2023-07-28T03:20:35;99931.57;;;21.38;55.54
78409;BME280;67697;50.750;-3.270;2023-07-28T03:23:00;99938.38;;;22.21;52.69
78409;BME280;67697;50.750;-3.270;2023-07-28T03:25:25;99939.40;;;23.20;50.75
78409;BME280;67697;50.750;-3.270;2023-07-28T03:27:51;99942.99;;;22.27;52.45
78409;BME280;67697;50.750;-3.270;2023-07-28T03:30:16;99942.97;;;22.31;53.79
78409;BME280;67697;50.750;-3.270;2023-07-28T03:32:42;99942.94;;;22.71;52.68
78409;BME280;67697;50.750;-3.270;2023-07-28T03:35:08;99945.82;;;22.44;52.72
78409;BME280;67697;50.750;-3.270;2023-07-28T03:37:33;99943.01;;;22.70;52.29
78409;BME280;67697;50.750;-3.270;2023-07-28T03:40:00;99942.31;;;22.99;51.75
78409;BME280;67697;50.750;-3.270;2023-07-28T03:42:24;99941.26;;;23.10;51.84
78409;BME280;67697;50.750;-3.270;2023-07-28T03:44:49;99938.41;;;22.22;52.76
78409;BME280;67697;50.750;-3.270;2023-07-28T03:47:15;99936.70;;;22.96;51.51
78409;BME280;67697;50.750;-3.270;2023-07-28T03:49:41;99933.79;;;23.16;51.62
78409;BME280;67697;50.750;-3.270;2023-07-28T03:52:06;99934.41;;;22.95;51.44
78409;BME280;67697;50.750;-3.270;2023-07-28T03:54:31;99932.32;;;23.08;51.20
78409;BME280;67697;50.750;-3.270;2023-07-28T03:56:57;99935.44;;;22.88;51.51
78409;BME280;67697;50.750;-3.270;2023-07-28T03:59:22;99932.58;;;22.95;50.98
78409;BME280;67697;50.750;-3.270;2023-07-28T04:01:53;99935.67;;;23.05;50.54
78409;BME280;67697;50.750;-3.270;2023-07-28T04:04:13;99936.66;;;23.29;50.76
78409;BME280;67697;50.750;-3.270;2023-07-28T04:06:41;99938.72;;;22.86;50.82
78409;BME280;67697;50.750;-3.270;2023-07-28T04:09:05;99945.51;;;23.26;50.98
78409;BME280;67697;50.750;-3.270;2023-07-28T04:11:30;99946.74;;;23.09;51.15
78409;BME280;67697;50.750;-3.270;2023-07-28T04:13:55;99949.73;;;22.69;51.33
78409;BME280;67697;50.750;-3.270;2023-07-28T04:16:20;99947.04;;;22.21;53.24
78409;BME280;67697;50.750;-3.270;2023-07-28T04:18:46;99946.26;;;22.73;52.58
78409;BME280;67697;50.750;-3.270;2023-07-28T04:21:11;99946.93;;;22.32;53.45
78409;BME280;67697;50.750;-3.270;2023-07-28T04:23:37;99945.80;;;22.55;52.55
78409;BME280;67697;50.750;-3.270;2023-07-28T04:26:03;99944.13;;;22.54;52.97
78409;BME280;67697;50.750;-3.270;2023-07-28T04:28:28;99943.22;;;22.75;52.36
78409;BME280;67697;50.750;-3.270;2023-07-28T04:30:54;99944.14;;;22.44;53.01
78409;BME280;67697;50.750;-3.270;2023-07-28T04:33:19;99941.52;;;21.90;54.38
78409;BME280;67697;50.750;-3.270;2023-07-28T04:35:44;99938.13;;;21.79;55.03
78409;BME280;67697;50.750;-3.270;2023-07-28T04:38:10;99936.27;;;21.88;55.20
78409;BME280;67697;50.750;-3.270;2023-07-28T04:40:36;99937.51;;;20.97;57.49
78409;BME280;67697;50.750;-3.270;2023-07-28T04:43:02;99937.82;;;20.58;59.04
78409;BME280;67697;50.750;-3.270;2023-07-28T04:45:27;99940.55;;;20.03;59.82
78409;BME280;67697;50.750;-3.270;2023-07-28T04:47:52;99940.29;;;20.50;59.60
78409;BME280;67697;50.750;-3.270;2023-07-28T04:50:18;99941.43;;;19.95;60.50
78409;BME280;67697;50.750;-3.270;2023-07-28T04:52:44;99943.68;;;20.30;60.54
78409;BME280;67697;50.750;-3.270;2023-07-28T04:55:09;99947.25;;;20.38;59.81
78409;BME280;67697;50.750;-3.270;2023-07-28T04:57:34;99952.30;;;19.76;61.87
78409;BME280;67697;50.750;-3.270;2023-07-28T05:00:00;99953.42;;;19.14;63.52
78409;BME280;67697;50.750;-3.270;2023-07-28T05:02:25;99951.42;;;19.13;64.22
78409;BME280;67697;50.750;-3.270;2023-07-28T05:04:51;99947.86;;;19.81;62.08
78409;BME280;67697;50.750;-3.270;2023-07-28T05:07:17;99945.37;;;19.83;60.51
78409;BME280;67697;50.750;-3.270;2023-07-28T05:09:42;99944.89;;;19.92;60.54
78409;BME280;67697;50.750;-3.270;2023-07-28T05:12:08;99944.16;;;19.71;60.26
78409;BME280;67697;50.750;-3.270;2023-07-28T05:14:33;99949.81;;;18.28;64.23
78409;BME280;67697;50.750;-3.270;2023-07-28T05:16:59;99940.68;;;20.25;59.74
78409;BME280;67697;50.750;-3.270;2023-07-28T05:19:24;99943.09;;;19.36;59.97
78409;BME280;67697;50.750;-3.270;2023-07-28T05:21:49;99942.33;;;20.72;58.74
78409;BME280;67697;50.750;-3.270;2023-07-28T05:24:15;99937.67;;;21.04;57.36
78409;BME280;67697;50.750;-3.270;2023-07-28T05:26:40;99940.02;;;21.34;56.40
78409;BME280;67697;50.750;-3.270;2023-07-28T05:29:05;99938.53;;;21.04;56.78
78409;BME280;67697;50.750;-3.270;2023-07-28T05:31:31;99943.27;;;20.19;58.33
78409;BME280;67697;50.750;-3.270;2023-07-28T05:33:56;99937.71;;;21.71;54.93
78409;BME280;67697;50.750;-3.270;2023-07-28T05:36:23;99937.76;;;21.98;54.87
78409;BME280;67697;50.750;-3.270;2023-07-28T05:38:47;99942.99;;;19.49;59.01
78409;BME280;67697;50.750;-3.270;2023-07-28T05:41:13;99944.04;;;20.66;57.10
78409;BME280;67697;50.750;-3.270;2023-07-28T05:43:38;99947.99;;;22.32;53.72
78409;BME280;67697;50.750;-3.270;2023-07-28T05:46:04;99949.86;;;22.34;53.60
78409;BME280;67697;50.750;-3.270;2023-07-28T05:48:29;99948.44;;;22.84;52.60
78409;BME280;67697;50.750;-3.270;2023-07-28T05:50:55;99950.84;;;22.62;52.69
78409;BME280;67697;50.750;-3.270;2023-07-28T05:53:21;99950.66;;;22.60;52.73
78409;BME280;67697;50.750;-3.270;2023-07-28T05:55:46;99952.79;;;22.82;52.45
78409;BME280;67697;50.750;-3.270;2023-07-28T05:58:11;99957.85;;;22.32;52.93
78409;BME280;67697;50.750;-3.270;2023-07-28T06:00:39;99958.31;;;22.33;52.76
78409;BME280;67697;50.750;-3.270;2023-07-28T06:03:02;99956.03;;;22.61;52.53
78409;BME280;67697;50.750;-3.270;2023-07-28T06:05:28;99957.95;;;22.82;52.26
78409;BME280;67697;50.750;-3.270;2023-07-28T06:07:53;99958.10;;;22.35;53.10
78409;BME280;67697;50.750;-3.270;2023-07-28T06:10:19;99953.15;;;22.57;52.22
78409;BME280;67697;50.750;-3.270;2023-07-28T06:12:44;99950.36;;;21.94;53.19
78409;BME280;67697;50.750;-3.270;2023-07-28T06:15:10;99946.54;;;22.20;51.76
78409;BME280;67697;50.750;-3.270;2023-07-28T06:17:35;99949.21;;;22.69;51.11
78409;BME280;67697;50.750;-3.270;2023-07-28T06:20:01;99946.33;;;21.99;53.40
78409;BME280;67697;50.750;-3.270;2023-07-28T06:22:26;99947.26;;;21.89;53.35
78409;BME280;67697;50.750;-3.270;2023-07-28T06:24:52;99946.96;;;20.58;54.86
78409;BME280;67697;50.750;-3.270;2023-07-28T06:27:17;99945.95;;;21.80;53.61
78409;BME280;67697;50.750;-3.270;2023-07-28T06:29:42;99949.72;;;21.06;54.14
78409;BME280;67697;50.750;-3.270;2023-07-28T06:32:08;99949.06;;;21.93;52.48
78409;BME280;67697;50.750;-3.270;2023-07-28T06:34:33;99949.81;;;22.46;51.73
78409;BME280;67697;50.750;-3.270;2023-07-28T06:37:04;99950.06;;;22.92;49.81
78409;BME280;67697;50.750;-3.270;2023-07-28T06:39:24;99948.67;;;22.63;50.79
78409;BME280;67697;50.750;-3.270;2023-07-28T06:41:49;99947.92;;;22.20;52.44
78409;BME280;67697;50.750;-3.270;2023-07-28T06:44:15;99950.88;;;22.12;53.03
78409;BME280;67697;50.750;-3.270;2023-07-28T06:46:40;99954.05;;;21.84;53.85
78409;BME280;67697;50.750;-3.270;2023-07-28T06:49:05;99957.39;;;22.50;51.27
78409;BME280;67697;50.750;-3.270;2023-07-28T06:51:32;99956.37;;;21.56;54.19
78409;BME280;67697;50.750;-3.270;2023-07-28T06:53:56;99960.46;;;22.58;51.73
78409;BME280;67697;50.750;-3.270;2023-07-28T06:56:22;99962.15;;;21.70;52.94
78409;BME280;67697;50.750;-3.270;2023-07-28T06:58:47;99963.81;;;20.97;55.28
78409;BME280;67697;50.750;-3.270;2023-07-28T07:01:13;99966.31;;;20.91;57.52
78409;BME280;67697;50.750;-3.270;2023-07-28T07:03:39;99968.13;;;19.31;59.92
78409;BME280;67697;50.750;-3.270;2023-07-28T07:06:04;99964.00;;;20.00;58.46
78409;BME280;67697;50.750;-3.270;2023-07-28T07:08:29;99962.34;;;20.80;57.77
78409;BME280;67697;50.750;-3.270;2023-07-28T07:10:55;99966.20;;;20.32;59.84
78409;BME280;67697;50.750;-3.270;2023-07-28T07:13:20;99970.07;;;19.77;59.62
78409;BME280;67697;50.750;-3.270;2023-07-28T07:15:47;99972.59;;;19.84;60.41
78409;BME280;67697;50.750;-3.270;2023-07-28T07:18:12;99974.53;;;19.96;62.08
78409;BME280;67697;50.750;-3.270;2023-07-28T07:20:38;99976.18;;;19.22;63.75
78409;BME280;67697;50.750;-3.270;2023-07-28T07:23:05;99982.20;;;18.99;65.05
78409;BME280;67697;50.750;-3.270;2023-07-28T07:25:29;99985.57;;;18.75;64.22
78409;BME280;67697;50.750;-3.270;2023-07-28T07:27:53;99989.38;;;19.15;64.79
78409;BME280;67697;50.750;-3.270;2023-07-28T07:30:19;99986.11;;;19.62;60.53
78409;BME280;67697;50.750;-3.270;2023-07-28T07:32:45;99987.41;;;20.35;58.19
78409;BME280;67697;50.750;-3.270;2023-07-28T07:35:10;99993.10;;;18.80;63.41
78409;BME280;67697;50.750;-3.270;2023-07-28T07:37:35;99992.02;;;19.62;61.39
78409;BME280;67697;50.750;-3.270;2023-07-28T07:40:01;99992.69;;;18.85;63.20
78409;BME280;67697;50.750;-3.270;2023-07-28T07:42:28;99994.59;;;19.66;63.77
78409;BME280;67697;50.750;-3.270;2023-07-28T07:44:52;99990.89;;;19.54;63.75
78409;BME280;67697;50.750;-3.270;2023-07-28T07:47:17;99990.06;;;20.34;60.23
78409;BME280;67697;50.750;-3.270;2023-07-28T07:49:43;99995.71;;;20.79;58.35
78409;BME280;67697;50.750;-3.270;2023-07-28T07:52:09;99995.21;;;20.31;60.21
78409;BME280;67697;50.750;-3.270;2023-07-28T07:54:34;99998.35;;;19.65;63.76
78409;BME280;67697;50.750;-3.270;2023-07-28T07:57:00;100003.30;;;18.75;65.52
78409;BME280;67697;50.750;-3.270;2023-07-28T07:59:25;100000.20;;;18.56;66.26
78409;BME280;67697;50.750;-3.270;2023-07-28T08:01:50;99997.47;;;18.96;66.09
78409;BME280;67697;50.750;-3.270;2023-07-28T08:04:16;99992.06;;;18.89;65.12
78409;BME280;67697;50.750;-3.270;2023-07-28T08:06:41;99990.08;;;19.57;64.23
78409;BME280;67697;50.750;-3.270;2023-07-28T08:09:07;99991.39;;;19.40;66.22
78409;BME280;67697;50.750;-3.270;2023-07-28T08:11:32;99993.23;;;18.73;69.48
78409;BME280;67697;50.750;-3.270;2023-07-28T08:13:58;99995.89;;;18.68;70.99
78409;BME280;67697;50.750;-3.270;2023-07-28T08:16:23;100001.15;;;18.06;72.89
78409;BME280;67697;50.750;-3.270;2023-07-28T08:18:49;100001.90;;;17.88;73.04
78409;BME280;67697;50.750;-3.270;2023-07-28T08:21:19;100000.70;;;17.64;70.97
78409;BME280;67697;50.750;-3.270;2023-07-28T08:23:40;99998.42;;;17.57;71.84
78409;BME280;67697;50.750;-3.270;2023-07-28T08:26:05;99998.44;;;17.75;72.91
78409;BME280;67697;50.750;-3.270;2023-07-28T08:28:31;100001.85;;;17.50;73.96
78409;BME280;67697;50.750;-3.270;2023-07-28T08:30:56;100012.72;;;17.52;74.78
78409;BME280;67697;50.750;-3.270;2023-07-28T08:33:22;100012.88;;;17.78;74.47
78409;BME280;67697;50.750;-3.270;2023-07-28T08:35:48;100014.33;;;17.67;73.58
78409;BME280;67697;50.750;-3.270;2023-07-28T08:38:14;100014.48;;;17.03;76.80
78409;BME280;67697;50.750;-3.270;2023-07-28T08:40:38;100017.82;;;17.00;77.93
78409;BME280;67697;50.750;-3.270;2023-07-28T08:43:04;100017.70;;;17.52;77.65
78409;BME280;67697;50.750;-3.270;2023-07-28T08:45:30;100023.41;;;17.66;75.87
78409;BME280;67697;50.750;-3.270;2023-07-28T08:47:55;100020.88;;;17.85;74.16
78409;BME280;67697;50.750;-3.270;2023-07-28T08:50:21;100023.49;;;18.38;72.08
78409;BME280;67697;50.750;-3.270;2023-07-28T08:52:46;100021.94;;;18.35;70.79
78409;BME280;67697;50.750;-3.270;2023-07-28T08:55:11;100022.43;;;18.29;72.51
78409;BME280;67697;50.750;-3.270;2023-07-28T08:57:37;100019.52;;;18.11;71.33
78409;BME280;67697;50.750;-3.270;2023-07-28T09:00:07;100022.19;;;17.70;73.46
78409;BME280;67697;50.750;-3.270;2023-07-28T09:02:29;100036.17;;;17.92;73.88
78409;BME280;67697;50.750;-3.270;2023-07-28T09:04:53;100038.09;;;17.70;74.28
78409;BME280;67697;50.750;-3.270;2023-07-28T09:07:19;100037.18;;;17.84;75.36
78409;BME280;67697;50.750;-3.270;2023-07-28T09:09:45;100033.51;;;18.45;74.41
78409;BME280;67697;50.750;-3.270;2023-07-28T09:12:10;100030.96;;;17.60;74.76
78409;BME280;67697;50.750;-3.270;2023-07-28T09:14:36;100028.43;;;17.23;76.36
78409;BME280;67697;50.750;-3.270;2023-07-28T09:17:08;100028.90;;;17.63;75.88
78409;BME280;67697;50.750;-3.270;2023-07-28T09:19:26;100029.30;;;18.31;76.71
78409;BME280;67697;50.750;-3.270;2023-07-28T09:21:57;100024.32;;;18.15;77.52
78409;BME280;67697;50.750;-3.270;2023-07-28T09:24:18;100028.12;;;18.17;76.76
78409;BME280;67697;50.750;-3.270;2023-07-28T09:26:45;100030.83;;;18.82;75.03
78409;BME280;67697;50.750;-3.270;2023-07-28T09:29:13;100029.08;;;18.38;75.13
78409;BME280;67697;50.750;-3.270;2023-07-28T09:31:39;100030.90;;;18.40;74.87
78409;BME280;67697;50.750;-3.270;2023-07-28T09:33:59;100032.67;;;18.59;74.84
78409;BME280;67697;50.750;-3.270;2023-07-28T09:36:26;100025.52;;;18.27;75.08
78409;BME280;67697;50.750;-3.270;2023-07-28T09:38:51;100032.35;;;17.79;75.07
78409;BME280;67697;50.750;-3.270;2023-07-28T09:43:44;100032.20;;;17.61;76.83
78409;BME280;67697;50.750;-3.270;2023-07-28T09:48:34;100037.52;;;17.22;79.43
78409;BME280;67697;50.750;-3.270;2023-07-28T09:51:03;100034.41;;;17.45;78.71
78409;BME280;67697;50.750;-3.270;2023-07-28T09:53:24;100033.85;;;16.94;81.73
78409;BME280;67697;50.750;-3.270;2023-07-28T09:55:50;100041.37;;;16.85;82.21
78409;BME280;67697;50.750;-3.270;2023-07-28T09:58:16;100041.26;;;17.23;82.16
78409;BME280;67697;50.750;-3.270;2023-07-28T10:00:41;100040.81;;;17.25;81.12
78409;BME280;67697;50.750;-3.270;2023-07-28T10:03:05;100037.44;;;17.99;80.10
78409;BME280;67697;50.750;-3.270;2023-07-28T10:05:41;100032.33;;;17.78;78.84
78409;BME280;67697;50.750;-3.270;2023-07-28T10:07:56;100031.68;;;17.63;80.08
78409;BME280;67697;50.750;-3.270;2023-07-28T10:10:23;100026.31;;;17.71;82.65
78409;BME280;67697;50.750;-3.270;2023-07-28T10:12:54;100024.53;;;17.82;83.78
78409;BME280;67697;50.750;-3.270;2023-07-28T10:15:14;100021.40;;;18.04;84.23
78409;BME280;67697;50.750;-3.270;2023-07-28T10:17:38;100015.21;;;18.28;81.50
78409;BME280;67697;50.750;-3.270;2023-07-28T10:20:04;100014.16;;;18.15;77.94
78409;BME280;67697;50.750;-3.270;2023-07-28T10:22:30;100013.56;;;18.58;77.15
78409;BME280;67697;50.750;-3.270;2023-07-28T10:24:56;100010.37;;;17.99;79.99
78409;BME280;67697;50.750;-3.270;2023-07-28T10:27:30;100008.55;;;18.20;78.98
78409;BME280;67697;50.750;-3.270;2023-07-28T10:29:55;100011.19;;;19.24;77.28
78409;BME280;67697;50.750;-3.270;2023-07-28T10:34:37;100007.16;;;18.62;77.26
78409;BME280;67697;50.750;-3.270;2023-07-28T10:37:02;100006.26;;;18.45;77.68
78409;BME280;67697;50.750;-3.270;2023-07-28T10:39:27;100003.94;;;19.00;78.10
78409;BME280;67697;50.750;-3.270;2023-07-28T10:42:04;99999.21;;;19.13;76.08
78409;BME280;67697;50.750;-3.270;2023-07-28T10:44:18;99999.61;;;18.88;74.76
78409;BME280;67697;50.750;-3.270;2023-07-28T10:46:44;100005.53;;;18.68;74.42
78409;BME280;67697;50.750;-3.270;2023-07-28T10:49:09;100001.49;;;18.81;74.71
78409;BME280;67697;50.750;-3.270;2023-07-28T10:51:44;100000.72;;;18.97;77.08
78409;BME280;67697;50.750;-3.270;2023-07-28T10:54:01;99995.28;;;19.46;72.48
78409;BME280;67697;50.750;-3.270;2023-07-28T10:56:26;99999.51;;;18.80;74.64
78409;BME280;67697;50.750;-3.270;2023-07-28T10:58:56;99999.79;;;17.67;78.30
78409;BME280;67697;50.750;-3.270;2023-07-28T11:01:17;100005.55;;;17.13;81.26
78409;BME280;67697;50.750;-3.270;2023-07-28T11:03:43;99998.54;;;17.84;80.81
78409;BME280;67697;50.750;-3.270;2023-07-28T11:06:08;100000.77;;;17.46;81.37
78409;BME280;67697;50.750;-3.270;2023-07-28T11:08:33;100004.41;;;17.63;80.57
78409;BME280;67697;50.750;-3.270;2023-07-28T11:10:59;99999.24;;;18.01;80.46
78409;BME280;67697;50.750;-3.270;2023-07-28T11:13:36;100000.05;;;18.05;78.21
78409;BME280;67697;50.750;-3.270;2023-07-28T11:15:55;100008.07;;;18.40;77.88
78409;BME280;67697;50.750;-3.270;2023-07-28T11:18:18;100005.57;;;18.71;74.36
78409;BME280;67697;50.750;-3.270;2023-07-28T11:20:42;100005.01;;;19.25;73.89
78409;BME280;67697;50.750;-3.270;2023-07-28T11:23:06;100002.18;;;19.12;75.22
78409;BME280;67697;50.750;-3.270;2023-07-28T11:25:33;99996.65;;;18.75;74.08
78409;BME280;67697;50.750;-3.270;2023-07-28T11:27:58;99998.01;;;18.99;75.32
78409;BME280;67697;50.750;-3.270;2023-07-28T11:30:25;99994.09;;;18.96;74.19
78409;BME280;67697;50.750;-3.270;2023-07-28T11:32:50;99997.09;;;19.07;74.16
78409;BME280;67697;50.750;-3.270;2023-07-28T11:35:17;100004.01;;;18.22;76.46
78409;BME280;67697;50.750;-3.270;2023-07-28T11:37:41;100003.77;;;18.95;77.46
78409;BME280;67697;50.750;-3.270;2023-07-28T11:40:06;100005.58;;;18.69;79.03
78409;BME280;67697;50.750;-3.270;2023-07-28T11:42:30;100004.06;;;18.49;78.64
78409;BME280;67697;50.750;-3.270;2023-07-28T11:44:56;100005.34;;;18.81;78.52
78409;BME280;67697;50.750;-3.270;2023-07-28T11:47:26;100001.37;;;18.28;77.90
78409;BME280;67697;50.750;-3.270;2023-07-28T11:49:47;100006.53;;;18.34;78.80
78409;BME280;67697;50.750;-3.270;2023-07-28T11:52:13;100009.06;;;18.75;77.83
78409;BME280;67697;50.750;-3.270;2023-07-28T11:54:43;100000.87;;;19.66;75.68
78409;BME280;67697;50.750;-3.270;2023-07-28T11:57:03;100000.60;;;19.50;73.56
78409;BME280;67697;50.750;-3.270;2023-07-28T11:59:29;100001.36;;;19.63;75.79
78409;BME280;67697;50.750;-3.270;2023-07-28T12:01:55;100006.10;;;19.36;71.38
78409;BME280;67697;50.750;-3.270;2023-07-28T12:04:20;100006.31;;;19.20;72.21
78409;BME280;67697;50.750;-3.270;2023-07-28T12:09:11;100004.72;;;19.18;77.19
78409;BME280;67697;50.750;-3.270;2023-07-28T12:11:36;99997.29;;;19.32;72.51
78409;BME280;67697;50.750;-3.270;2023-07-28T12:14:02;99993.38;;;19.33;73.29
78409;BME280;67697;50.750;-3.270;2023-07-28T12:16:39;99991.91;;;18.88;73.22
78409;BME280;67697;50.750;-3.270;2023-07-28T12:18:58;99988.82;;;19.49;72.03
78409;BME280;67697;50.750;-3.270;2023-07-28T12:21:18;99988.03;;;19.28;70.63
78409;BME280;67697;50.750;-3.270;2023-07-28T12:23:43;99990.14;;;19.48;69.41
78409;BME280;67697;50.750;-3.270;2023-07-28T12:26:09;99991.21;;;20.02;69.15
78409;BME280;67697;50.750;-3.270;2023-07-28T12:28:34;99991.45;;;19.47;70.09
78409;BME280;67697;50.750;-3.270;2023-07-28T12:31:00;99985.66;;;19.48;69.11
78409;BME280;67697;50.750;-3.270;2023-07-28T12:33:25;99987.86;;;19.75;69.76
78409;BME280;67697;50.750;-3.270;2023-07-28T12:35:51;99995.65;;;19.28;70.48
78409;BME280;67697;50.750;-3.270;2023-07-28T12:38:16;99993.28;;;19.34;70.20
78409;BME280;67697;50.750;-3.270;2023-07-28T12:40:47;99992.29;;;19.25;69.50
78409;BME280;67697;50.750;-3.270;2023-07-28T12:43:08;99997.48;;;19.15;71.54
78409;BME280;67697;50.750;-3.270;2023-07-28T12:45:33;99992.73;;;19.52;71.76
78409;BME280;67697;50.750;-3.270;2023-07-28T12:47:58;99988.30;;;20.56;67.39